Time;durP1;ratioP1;P1;durP2;ratioP2;P2;SDS_P1;SDS_P2;PMS_P1;PMS_P2;Temp;Humidity;BMP_temperature;BMP_pressure;BME280_temperature;BME280_humidity;BME280_pressure;Samples;Min_cycle;Max_cycle;Signal;HPM_P1;HPM_P2
2023/01/24 00:00:40;;;;;;;15.50;11.90;;;2.90;80.30;;;2.44;75.28;99479.69;5092692;28;20553;-76
2023/01/24 00:03:11;;;;;;;16.80;12.70;;;2.90;80.10;;;2.35;75.78;99483.94;5090014;28;20474;-74
2023/01/24 00:05:39;;;;;;;13.20;10.40;;;2.90;80.40;;;2.40;75.49;99482.59;5097169;28;20501;-72
2023/01/24 00:08:07;;;;;;;14.20;10.87;;;2.90;80.30;;;2.40;75.56;99474.59;5083526;28;20957;-72
2023/01/24 00:10:36;;;;;;;14.07;10.30;;;2.90;80.30;;;2.23;76.22;99489.31;5082801;28;20816;-75
2023/01/24 00:13:03;;;;;;;15.00;10.07;;;2.80;80.20;;;2.35;75.98;99492.78;5095243;28;20478;-74
2023/01/24 00:15:30;;;;;;;16.10;12.20;;;2.90;80.60;;;2.13;76.15;99499.03;5081269;28;20467;-74
2023/01/24 00:17:59;;;;;;;13.00;9.67;;;2.80;80.50;;;2.25;76.42;99498.03;5089565;28;20444;-73
2023/01/24 00:20:27;;;;;;;13.60;10.83;;;2.80;80.70;;;2.34;75.65;99492.91;5080350;28;20447;-73
2023/01/24 00:22:55;;;;;;;15.10;10.53;;;2.80;80.80;;;2.05;76.83;99485.50;5086646;28;20448;-73
2023/01/24 00:25:22;;;;;;;14.43;10.23;;;2.80;81.10;;;2.15;76.69;99515.75;5088166;28;20462;-72
2023/01/24 00:27:51;;;;;;;13.53;10.07;;;2.80;80.90;;;2.12;76.94;99511.53;5086793;28;20452;-73
2023/01/24 00:30:18;;;;;;;15.10;10.43;;;2.80;81.10;;;1.79;77.90;99491.94;5086473;28;20961;-73
2023/01/24 00:32:46;;;;;;;16.00;11.37;;;2.70;81.50;;;1.94;78.16;99510.34;5089007;28;20440;-76
2023/01/24 00:35:13;;;;;;;15.70;11.67;;;2.60;82.40;;;1.89;78.26;99507.22;5086931;28;20472;-74
2023/01/24 00:37:41;;;;;;;13.83;11.60;;;2.60;82.30;;;1.89;77.99;99505.38;5087502;28;20461;-74
2023/01/24 00:40:10;;;;;;;16.53;10.77;;;2.60;82.30;;;2.01;77.69;99513.34;5085695;28;20554;-73
2023/01/24 00:42:38;;;;;;;13.57;10.17;;;2.60;82.30;;;1.79;78.47;99518.59;5086259;28;20454;-73
2023/01/24 00:45:08;;;;;;;14.40;10.60;;;2.50;82.40;;;1.68;79.13;99511.44;5101138;28;20827;-73
2023/01/24 00:47:35;;;;;;;13.80;10.10;;;2.50;82.80;;;1.66;79.07;99499.22;5087758;28;20440;-73
2023/01/24 00:50:02;;;;;;;13.87;10.17;;;2.50;83.20;;;1.79;78.74;99512.44;5088656;28;20457;-73
2023/01/24 00:52:30;;;;;;;14.63;10.03;;;2.50;83.10;;;1.68;79.02;99508.78;5069463;28;20437;-72
2023/01/24 00:54:57;;;;;;;14.80;10.13;;;2.50;83.20;;;1.75;78.89;99509.16;5070609;28;20451;-73
2023/01/24 00:57:25;;;;;;;15.97;10.20;;;2.50;83.50;;;1.75;78.84;99516.31;5086937;28;20450;-74
2023/01/24 00:59:52;;;;;;;12.57;10.00;;;2.40;83.10;;;1.61;78.93;99507.59;5088394;28;20447;-76
2023/01/24 01:02:21;;;;;;;14.33;10.90;;;2.50;83.40;;;1.52;79.19;99494.97;5084042;28;20461;-74
2023/01/24 01:04:48;;;;;;;15.83;11.30;;;2.40;83.60;;;1.87;79.04;99523.31;5086924;28;20839;-74
2023/01/24 01:07:15;;;;;;;16.90;10.93;;;2.50;83.90;;;1.86;79.00;99518.94;5088199;28;20445;-72
2023/01/24 01:09:43;;;;;;;13.93;10.97;;;2.50;83.50;;;1.63;79.41;99513.66;5088814;28;20776;-73
2023/01/24 01:12:10;;;;;;;14.30;11.23;;;2.40;83.40;;;1.42;79.65;99489.53;5088265;28;20456;-72
2023/01/24 01:14:37;;;;;;;15.77;10.20;;;2.40;83.80;;;1.48;80.04;99499.69;5084794;28;20464;-73
2023/01/24 01:17:05;;;;;;;15.87;11.83;;;2.40;84.10;;;1.56;79.78;99507.09;5084462;28;20483;-72
2023/01/24 01:19:33;;;;;;;16.90;11.23;;;2.40;84.40;;;1.89;79.46;99518.69;5084997;28;20475;-72
2023/01/24 01:22:01;;;;;;;16.47;11.90;;;2.40;84.50;;;1.89;78.83;99529.34;5086869;28;20455;-72
2023/01/24 01:24:29;;;;;;;14.47;10.23;;;2.50;84.30;;;1.86;78.84;99524.28;5081217;28;20469;-72
2023/01/24 01:26:56;;;;;;;16.70;13.03;;;2.50;84.00;;;1.83;78.71;99525.41;5078922;28;20572;-73
2023/01/24 01:29:23;;;;;;;18.60;12.20;;;2.50;83.70;;;1.99;78.55;99521.50;5092454;28;20463;-75
2023/01/24 01:31:50;;;;;;;13.73;10.23;;;2.50;83.90;;;1.95;78.27;99523.56;5092444;28;20443;-75
2023/01/24 01:34:18;;;;;;;16.17;10.77;;;2.60;83.80;;;1.90;78.53;99515.09;5090183;28;20472;-74
2023/01/24 01:36:47;;;;;;;14.80;11.00;;;2.60;83.50;;;1.86;78.70;99510.94;5106206;28;21257;-75
2023/01/24 01:39:14;;;;;;;15.87;10.40;;;2.60;83.80;;;1.70;78.73;99480.19;5069836;28;20462;-75
2023/01/24 01:41:41;;;;;;;16.10;10.87;;;2.60;83.60;;;2.04;78.12;99542.44;5074471;28;20456;-74
2023/01/24 01:44:40;;;;;;;14.20;10.13;;;2.60;83.20;;;1.89;78.60;99541.84;5089319;28;20518;-75
2023/01/24 01:47:20;;;;;;;14.73;10.80;;;2.60;83.50;;;1.97;78.56;99542.94;5088810;28;21032;-74
2023/01/24 01:49:56;;;;;;;15.07;10.40;;;2.60;83.40;;;1.96;78.42;99541.25;5074432;28;20439;-77
2023/01/24 01:52:28;;;;;;;16.70;11.40;;;2.50;84.00;;;1.77;78.84;99533.03;5105879;28;20464;-74
2023/01/24 01:55:00;;;;;;;16.43;10.80;;;2.60;83.60;;;1.78;79.22;99548.03;5100801;28;20439;-73
2023/01/24 01:57:31;;;;;;;14.50;10.63;;;2.50;83.50;;;1.85;78.92;99557.25;5106846;28;20489;-74
2023/01/24 02:00:04;;;;;;;14.67;10.50;;;2.50;83.50;;;1.66;78.85;99525.84;5124356;27;20528;-74
2023/01/24 02:02:32;;;;;;;17.17;10.73;;;2.50;83.60;;;1.91;78.83;99554.09;5087601;28;20489;-75
2023/01/24 02:05:04;;;;;;;15.20;9.27;;;2.50;83.80;;;1.86;78.68;99556.25;5089374;28;20539;-74
2023/01/24 02:07:39;;;;;;;14.33;8.90;;;2.50;83.70;;;1.77;78.99;99549.84;5090460;28;21055;-74
2023/01/24 02:10:08;;;;;;;13.00;9.40;;;2.50;83.50;;;1.75;78.94;99532.31;5090667;28;20789;-75
2023/01/24 02:12:40;;;;;;;11.80;9.20;;;2.40;83.50;;;1.76;79.06;99534.00;5088209;28;20931;-75
2023/01/24 02:17:59;;;;;;;12.83;9.10;;;2.50;83.80;;;1.78;78.65;99542.72;5086019;28;20431;-74
2023/01/24 02:20:36;;;;;;;10.23;8.60;;;2.40;83.40;;;1.68;78.85;99543.44;5092378;28;20885;-74
2023/01/24 02:23:19;;;;;;;10.83;8.60;;;2.40;83.20;;;1.80;78.75;99549.59;5088579;28;20516;-75
2023/01/24 02:25:57;;;;;;;10.43;7.80;;;2.40;83.50;;;1.81;78.33;99548.63;5091793;28;20447;-74
2023/01/24 02:28:26;;;;;;;12.77;9.60;;;2.40;83.60;;;1.91;77.90;99538.13;5097297;28;20549;-75
2023/01/24 02:30:57;;;;;;;12.33;9.90;;;2.50;83.90;;;1.60;79.11;99524.56;5090536;28;20503;-75
2023/01/24 02:33:24;;;;;;;12.27;9.03;;;2.40;83.80;;;1.77;79.04;99543.69;5090945;28;20897;-74
2023/01/24 02:35:51;;;;;;;11.93;8.80;;;2.40;83.90;;;1.67;79.26;99547.06;5089435;28;20471;-74
2023/01/24 02:38:23;;;;;;;16.17;11.07;;;2.40;83.90;;;1.68;79.41;99538.09;5088422;28;20508;-74
2023/01/24 02:41:06;;;;;;;16.37;10.87;;;2.30;83.70;;;1.67;79.29;99535.56;5079642;28;20933;-73
2023/01/24 02:43:39;;;;;;;15.40;10.17;;;2.30;84.40;;;1.78;78.74;99554.22;5092698;28;20867;-74
2023/01/24 02:46:06;;;;;;;11.53;8.77;;;2.40;83.90;;;1.79;78.98;99563.06;5079342;28;20486;-73
2023/01/24 02:48:34;;;;;;;11.33;8.90;;;2.40;84.10;;;1.84;78.57;99560.88;5080766;28;20540;-74
2023/01/24 02:53:46;;;;;;;12.07;8.83;;;2.40;83.40;;;1.62;79.29;99565.25;5084999;28;20966;-74
2023/01/24 02:58:59;;;;;;;11.70;8.47;;;2.30;83.50;;;1.70;78.51;99570.81;5083453;28;20440;-75
2023/01/24 03:01:26;;;;;;;13.53;9.00;;;2.30;83.40;;;1.55;78.91;99574.66;5081812;28;20458;-74
2023/01/24 03:03:55;;;;;;;11.57;8.40;;;2.30;83.20;;;1.47;78.87;99566.44;5068049;28;20517;-73
2023/01/24 03:06:22;;;;;;;12.47;8.30;;;2.30;83.20;;;1.63;79.04;99566.06;5084947;28;20462;-72
2023/01/24 03:08:50;;;;;;;12.13;8.50;;;2.20;83.70;;;1.52;78.51;99540.28;5087775;28;20523;-73
2023/01/24 03:11:18;;;;;;;11.47;8.10;;;2.30;83.70;;;1.61;78.56;99558.22;5081781;28;21021;-72
2023/01/24 03:35:58;;;;;;;8.40;6.40;;;2.30;82.20;;;1.65;77.89;99565.00;5083716;28;20796;-75
2023/01/24 03:41:10;;;;;;;10.10;7.43;;;2.30;82.50;;;1.60;77.80;99567.19;5096899;28;20455;-74
2023/01/24 03:43:38;;;;;;;10.03;6.77;;;2.30;82.30;;;1.58;77.80;99537.13;5083272;28;20466;-75
2023/01/24 03:46:06;;;;;;;11.13;7.20;;;2.30;82.90;;;1.64;77.61;99557.97;5080107;28;21044;-75
2023/01/24 03:48:36;;;;;;;9.83;7.67;;;2.30;82.60;;;1.63;78.27;99585.59;5082006;28;20448;-76
2023/01/24 03:53:52;;;;;;;10.20;7.57;;;2.30;82.80;;;1.70;78.14;99557.47;5083130;28;20474;-75
2023/01/24 03:56:19;;;;;;;10.93;7.73;;;2.30;82.90;;;1.66;78.17;99561.38;5085421;28;20466;-73
2023/01/24 03:58:47;;;;;;;10.50;7.93;;;2.30;83.20;;;1.65;78.33;99554.34;5078460;28;20464;-75
2023/01/24 04:01:15;;;;;;;10.53;7.60;;;2.30;83.30;;;1.60;77.95;99551.19;5076138;28;20459;-74
2023/01/24 04:03:42;;;;;;;14.37;9.20;;;2.30;82.50;;;1.80;77.73;99565.59;5096998;28;20451;-74
2023/01/24 04:06:09;;;;;;;11.10;7.97;;;2.30;83.00;;;1.76;77.82;99550.00;5082599;28;20514;-73
2023/01/24 04:08:36;;;;;;;8.33;6.93;;;2.30;82.70;;;1.62;77.76;99549.25;5081269;28;20477;-73
2023/01/24 04:11:04;;;;;;;8.40;6.50;;;2.30;82.60;;;1.49;78.01;99553.84;5085060;28;20438;-74
2023/01/24 04:13:34;;;;;;;10.47;7.30;;;2.30;82.40;;;1.55;78.51;99556.00;5081988;28;20466;-74
2023/01/24 04:16:06;;;;;;;8.80;6.87;;;2.20;82.70;;;1.66;78.03;99560.50;5084909;28;20451;-73
2023/01/24 04:18:33;;;;;;;11.60;7.50;;;2.20;83.10;;;1.70;78.05;99552.16;5083895;28;20974;-74
2023/01/24 04:21:03;;;;;;;8.70;6.17;;;2.30;82.90;;;1.62;77.93;99543.06;5075082;28;20955;-72
2023/01/24 04:23:31;;;;;;;9.70;7.10;;;2.30;83.00;;;1.68;77.67;99531.94;5079817;28;20454;-73
2023/01/24 04:26:00;;;;;;;7.30;6.10;;;2.30;82.60;;;1.44;78.24;99534.69;5083277;28;20967;-72
2023/01/24 04:28:28;;;;;;;8.67;6.57;;;2.20;82.20;;;1.45;78.77;99536.41;5085938;28;20803;-73
2023/01/24 04:31:06;;;;;;;10.73;7.30;;;2.20;83.00;;;1.54;78.27;99541.88;5081532;28;20557;-73
2023/01/24 04:33:33;;;;;;;9.30;6.47;;;2.20;82.90;;;1.49;78.33;99527.19;5084189;28;20450;-73
2023/01/24 04:36:00;;;;;;;9.03;6.60;;;2.10;83.10;;;1.72;77.55;99535.19;5087249;28;20478;-72
2023/01/24 04:38:28;;;;;;;9.03;6.30;;;2.20;83.00;;;1.54;77.74;99519.69;5086946;28;20523;-71
2023/01/24 04:41:00;;;;;;;8.40;6.77;;;2.30;82.70;;;1.65;77.92;99533.03;5085137;28;20848;-75
2023/01/24 04:43:28;;;;;;;7.40;6.27;;;2.20;82.70;;;1.53;78.51;99534.84;5085564;28;20855;-73
2023/01/24 04:46:00;;;;;;;7.00;5.83;;;2.20;82.80;;;1.44;78.31;99534.69;5087834;28;20518;-75
2023/01/24 04:48:29;;;;;;;7.80;5.80;;;2.20;82.60;;;1.47;78.36;99537.13;5102142;28;20459;-75
2023/01/24 04:51:00;;;;;;;9.23;5.97;;;2.20;82.70;;;1.39;78.57;99530.56;5113646;28;20466;-74
2023/01/24 04:53:28;;;;;;;8.20;6.33;;;2.10;82.80;;;1.31;78.73;99513.50;5110197;28;20476;-73
2023/01/24 04:56:00;;;;;;;7.23;5.40;;;2.10;83.10;;;1.37;78.79;99540.50;5129709;28;20433;-73
2023/01/24 04:58:28;;;;;;;6.13;5.17;;;2.10;83.50;;;1.40;79.01;99539.44;5104853;28;20508;-72
2023/01/24 05:00:55;;;;;;;7.10;5.90;;;2.10;83.20;;;0.92;78.58;99456.09;5092694;28;20466;-72
2023/01/24 05:03:22;;;;;;;10.17;6.67;;;2.10;83.20;;;1.51;78.49;99546.56;5089670;28;20452;-72
2023/01/24 05:05:51;;;;;;;9.10;7.50;;;2.10;83.00;;;1.46;78.56;99549.59;5088394;28;20867;-74
2023/01/24 05:08:19;;;;;;;7.70;5.90;;;2.10;83.20;;;1.38;78.40;99528.88;5087018;28;22401;-73
2023/01/24 05:10:46;;;;;;;7.10;5.43;;;2.20;83.00;;;1.22;78.19;99504.41;5089240;28;20468;-73
2023/01/24 05:13:14;;;;;;;6.90;5.53;;;2.20;82.60;;;1.56;78.14;99563.03;5075554;28;20810;-73
2023/01/24 05:15:47;;;;;;;6.57;5.23;;;2.20;82.70;;;1.16;78.12;99494.25;5092522;28;20544;-73
2023/01/24 05:18:14;;;;;;;5.57;4.63;;;2.20;82.60;;;1.53;78.01;99549.97;5094921;28;21024;-73
2023/01/24 05:20:43;;;;;;;7.90;5.30;;;2.20;82.60;;;1.48;77.82;99522.84;5084978;28;20459;-72
2023/01/24 05:23:11;;;;;;;6.27;5.10;;;2.20;82.60;;;1.26;78.05;99479.22;5091976;28;20454;-72
2023/01/24 05:25:39;;;;;;;9.20;5.70;;;2.20;82.50;;;1.65;77.87;99548.16;5081040;28;20928;-74
2023/01/24 05:28:06;;;;;;;6.80;4.90;;;2.20;82.50;;;1.66;77.74;99560.50;5080846;28;20808;-74
2023/01/24 05:30:33;;;;;;;6.97;5.37;;;2.20;82.40;;;1.61;77.95;99552.88;5092146;28;20994;-73
2023/01/24 05:33:00;;;;;;;8.53;6.27;;;2.30;82.20;;;1.65;77.86;99554.34;5085946;28;20459;-73
2023/01/24 05:35:27;;;;;;;6.57;5.27;;;2.30;82.10;;;1.58;76.97;99537.13;5088785;28;20805;-74
2023/01/24 05:37:55;;;;;;;7.67;5.33;;;2.30;82.20;;;1.12;77.71;99475.81;5076619;28;20478;-74
2023/01/24 05:40:23;;;;;;;6.30;5.33;;;2.30;81.90;;;1.41;77.74;99536.63;5086578;28;20780;-74
2023/01/24 05:42:51;;;;;;;7.30;5.50;;;2.30;82.00;;;1.74;77.40;99562.56;5089035;28;20443;-74
2023/01/24 05:45:18;;;;;;;7.30;4.93;;;2.30;81.90;;;1.80;77.28;99552.25;5090967;28;20443;-74
2023/01/24 05:47:45;;;;;;;7.20;5.20;;;2.40;81.60;;;1.01;77.23;99445.69;5091542;28;20442;-74
2023/01/24 05:50:12;;;;;;;7.43;5.40;;;2.40;81.50;;;1.72;76.89;99554.72;5091067;28;20439;-75
2023/01/24 05:52:39;;;;;;;6.50;5.10;;;2.40;81.30;;;1.82;77.00;99565.47;5108007;28;20440;-75
2023/01/24 05:55:08;;;;;;;6.03;4.73;;;2.40;81.60;;;1.87;76.92;99563.28;5090041;28;20438;-76
2023/01/24 05:57:37;;;;;;;6.50;4.73;;;2.40;81.30;;;1.87;76.26;99573.94;5087714;28;20959;-71
2023/01/24 06:00:05;;;;;;;7.50;5.03;;;2.50;81.10;;;1.87;76.38;99573.94;5083925;28;20852;-74
2023/01/24 06:02:33;;;;;;;5.90;5.13;;;2.50;80.80;;;1.76;76.94;99569.47;5088837;28;20462;-71
2023/01/24 06:05:00;;;;;;;6.43;5.27;;;2.50;81.10;;;1.87;76.70;99584.63;5082892;28;20529;-73
2023/01/24 06:07:27;;;;;;;7.90;4.67;;;2.50;81.30;;;2.00;76.15;99586.31;5086579;28;20446;-73
2023/01/24 06:09:54;;;;;;;7.43;5.77;;;2.60;81.00;;;2.06;76.24;99583.19;5084725;28;20455;-73
2023/01/24 06:12:21;;;;;;;7.30;4.50;;;2.60;80.90;;;1.89;76.15;99555.19;5080890;28;20467;-73
2023/01/24 06:14:50;;;;;;;6.70;5.13;;;2.60;81.00;;;2.21;75.48;99586.44;5080587;28;20460;-73
2023/01/24 06:17:17;;;;;;;6.07;4.57;;;2.60;80.80;;;2.10;75.13;99584.63;5084434;28;20548;-72
2023/01/24 06:19:45;;;;;;;6.23;4.67;;;2.60;80.70;;;2.23;75.43;99584.47;5085379;28;20902;-73
2023/01/24 06:22:23;;;;;;;7.50;5.17;;;2.60;80.80;;;2.03;75.93;99592.25;5084778;28;20481;-71
2023/01/24 06:24:51;;;;;;;5.20;4.53;;;2.60;80.60;;;2.13;75.90;99600.38;5083828;28;21022;-74
2023/01/24 06:27:19;;;;;;;6.40;5.23;;;2.60;80.80;;;2.02;76.07;99595.91;5085540;28;20505;-72
2023/01/24 06:29:47;;;;;;;7.40;5.37;;;2.60;80.80;;;1.04;76.46;99443.63;5085836;28;20555;-74
2023/01/24 06:32:29;;;;;;;6.67;5.60;;;2.60;81.20;;;1.95;76.14;99616.00;5078702;28;20471;-76
2023/01/24 06:35:12;;;;;;;6.90;4.43;;;2.60;80.90;;;2.10;75.85;99612.13;5096610;28;20473;-75
2023/01/24 06:37:47;;;;;;;5.13;3.97;;;2.60;81.00;;;2.04;76.03;99606.44;5083395;28;20513;-75
2023/01/24 06:40:17;;;;;;;7.87;5.37;;;2.60;80.80;;;1.90;76.50;99620.84;5076219;28;20451;-73
2023/01/24 06:42:45;;;;;;;5.87;4.77;;;2.60;81.00;;;1.99;76.29;99625.47;5083122;28;20456;-74
2023/01/24 06:45:13;;;;;;;5.33;4.73;;;2.60;80.90;;;1.93;76.79;99621.47;5080267;28;20456;-75
2023/01/24 06:47:42;;;;;;;5.93;4.63;;;2.60;81.00;;;2.06;76.49;99615.19;5094402;28;21206;-75
2023/01/24 06:50:15;;;;;;;4.53;4.13;;;2.60;81.20;;;2.16;76.25;99616.13;5080696;28;21003;-76
2023/01/24 06:52:45;;;;;;;5.47;4.47;;;2.60;81.20;;;2.14;76.57;99618.06;5081951;28;20505;-74
2023/01/24 06:55:12;;;;;;;5.10;4.40;;;2.70;81.10;;;2.03;76.34;99623.41;5077550;28;20459;-75
2023/01/24 06:57:40;;;;;;;6.87;4.87;;;2.60;81.00;;;2.03;76.20;99626.06;5084941;28;20934;-76
2023/01/24 07:00:09;;;;;;;6.10;4.83;;;2.70;80.90;;;1.98;76.54;99605.94;5086751;28;20920;-75
2023/01/24 07:02:36;;;;;;;6.10;4.60;;;2.70;81.10;;;2.00;76.88;99626.31;5081041;28;20456;-75
2023/01/24 07:05:06;;;;;;;5.40;4.00;;;2.60;81.10;;;2.08;76.10;99616.72;5101206;28;20444;-78
2023/01/24 07:07:33;;;;;;;6.80;4.53;;;2.70;81.20;;;2.11;75.85;99629.81;5072162;28;20444;-76
2023/01/24 07:10:00;;;;;;;5.10;4.57;;;2.70;80.90;;;2.11;76.18;99632.47;5081840;28;20458;-74
2023/01/24 07:12:28;;;;;;;4.90;4.40;;;2.60;81.10;;;2.07;76.19;99622.22;5080916;28;20454;-77
2023/01/24 07:14:55;;;;;;;7.57;4.30;;;2.70;81.00;;;2.21;76.24;99635.28;5097758;28;20456;-75
2023/01/24 07:17:23;;;;;;;5.53;4.57;;;2.70;81.00;;;2.07;76.25;99648.88;5079517;28;20466;-73
2023/01/24 07:19:51;;;;;;;4.67;4.07;;;2.70;81.00;;;2.06;76.16;99633.84;5091080;28;20450;-75
2023/01/24 07:22:20;;;;;;;4.13;3.73;;;2.70;80.80;;;2.12;76.13;99633.34;5083695;28;20465;-75
2023/01/24 07:24:48;;;;;;;5.37;4.80;;;2.70;81.00;;;2.25;75.64;99630.53;5075221;28;20451;-75
2023/01/24 07:27:16;;;;;;;7.17;5.43;;;2.70;81.00;;;2.08;75.77;99637.22;5081076;28;20465;-72
2023/01/24 07:29:43;;;;;;;5.70;4.53;;;2.70;81.00;;;2.26;75.81;99638.44;5092451;27;20807;-75
2023/01/24 07:32:11;;;;;;;6.60;4.90;;;2.80;80.90;;;2.22;76.18;99641.47;5081030;28;20560;-73
2023/01/24 07:34:39;;;;;;;5.33;4.83;;;2.80;80.90;;;2.30;75.60;99640.84;5079109;28;20466;-73
2023/01/24 07:37:08;;;;;;;5.80;4.80;;;2.80;80.80;;;2.30;75.77;99636.38;5073804;28;21061;-75
2023/01/24 07:39:36;;;;;;;6.60;4.93;;;2.80;80.70;;;2.12;76.32;99646.69;5086687;28;20451;-77
2023/01/24 07:42:04;;;;;;;6.80;4.87;;;2.80;80.60;;;2.09;76.09;99649.59;5078945;28;20724;-75
2023/01/24 07:44:31;;;;;;;5.60;4.77;;;2.70;80.70;;;2.18;76.27;99661.34;5101195;27;20460;-75
2023/01/24 07:46:58;;;;;;;6.63;5.10;;;2.70;80.80;;;2.15;76.15;99650.94;5110516;27;20463;-72
2023/01/24 07:49:25;;;;;;;6.13;5.27;;;2.70;80.90;;;2.06;76.23;99649.84;5104956;28;20446;-72
2023/01/24 07:51:53;;;;;;;6.27;5.20;;;2.70;80.60;;;2.19;76.14;99665.72;5114338;27;20470;-73
2023/01/24 07:54:20;;;;;;;7.20;5.20;;;2.80;80.80;;;2.35;76.30;99674.19;5111285;28;20443;-75
2023/01/24 07:56:49;;;;;;;5.53;4.50;;;2.80;81.20;;;2.26;76.17;99665.09;5097001;28;21045;-73
2023/01/24 07:59:16;;;;;;;5.70;5.00;;;2.80;81.20;;;2.14;76.11;99639.41;5100752;28;20467;-76
2023/01/24 08:01:43;;;;;;;5.70;5.10;;;2.90;80.80;;;2.28;76.32;99677.47;5087352;28;20462;-75
2023/01/24 08:04:11;;;;;;;5.63;5.00;;;2.80;80.80;;;2.47;75.86;99674.19;5087240;28;20499;-75
2023/01/24 08:07:16;;;;;;;5.77;5.10;;;2.90;81.00;;;2.37;75.79;99679.44;5078426;28;20450;-74
2023/01/24 08:09:27;;;;;;;5.80;5.20;;;2.90;80.80;;;2.46;75.41;99676.00;5089913;28;20546;-75
2023/01/24 08:11:57;;;;;;;5.57;5.00;;;2.90;80.80;;;2.49;75.28;99688.25;5089108;28;21053;-75
2023/01/24 08:14:24;;;;;;;7.17;5.10;;;3.00;80.80;;;2.67;75.21;99688.63;5088231;28;20511;-75
2023/01/24 08:16:51;;;;;;;6.23;4.80;;;3.00;80.80;;;2.59;74.68;99680.38;5082880;28;20501;-76
2023/01/24 08:19:18;;;;;;;5.63;4.73;;;3.00;80.50;;;2.50;75.25;99693.50;5086889;28;20567;-73
2023/01/24 08:21:45;;;;;;;7.50;4.97;;;3.00;80.40;;;2.35;75.53;99695.53;5074250;28;20459;-74
2023/01/24 08:24:16;;;;;;;6.00;5.37;;;3.00;80.40;;;2.43;75.63;99686.94;5094564;28;20443;-74
2023/01/24 08:26:46;;;;;;;9.63;5.40;;;3.00;80.50;;;2.50;75.68;99704.16;5076164;28;20878;-75
2023/01/24 08:29:14;;;;;;;7.87;6.20;;;3.00;80.50;;;2.41;75.91;99699.53;5086305;28;20456;-75
2023/01/24 08:31:41;;;;;;;5.53;5.03;;;3.00;81.00;;;2.64;75.18;99694.19;5086334;28;20465;-76
2023/01/24 08:34:10;;;;;;;5.83;4.57;;;3.10;80.40;;;2.52;75.05;99701.34;5083126;28;20942;-77
2023/01/24 08:36:37;;;;;;;6.20;5.60;;;3.10;80.10;;;2.46;75.22;99709.84;5080392;28;20470;-74
2023/01/24 08:39:04;;;;;;;6.03;5.17;;;3.10;80.30;;;2.54;74.95;99702.94;5085091;28;20975;-76
2023/01/24 08:41:31;;;;;;;6.40;5.40;;;3.10;80.20;;;2.22;76.30;99703.66;5092410;28;20520;-74
2023/01/24 08:43:59;;;;;;;6.90;5.03;;;3.00;80.30;;;2.24;76.45;99706.19;5082311;28;20463;-74
2023/01/24 08:46:29;;;;;;;6.80;4.90;;;2.90;80.50;;;2.40;76.03;99709.34;5085196;28;20551;-75
2023/01/24 08:48:56;;;;;;;6.17;4.87;;;3.00;80.50;;;2.35;76.30;99711.53;5086028;28;20478;-75
2023/01/24 08:51:23;;;;;;;6.80;4.77;;;3.00;80.80;;;2.44;75.56;99715.31;5081926;28;20481;-74
2023/01/24 08:53:50;;;;;;;6.53;5.20;;;3.00;80.60;;;2.60;75.62;99720.28;5100436;28;20462;-75
2023/01/24 08:56:17;;;;;;;6.93;5.83;;;3.10;80.60;;;2.61;75.42;99713.97;5071474;28;21227;-75
2023/01/24 08:58:45;;;;;;;6.40;5.33;;;3.20;80.50;;;2.55;75.30;99704.63;5079495;28;20544;-75
2023/01/24 09:01:12;;;;;;;6.17;5.57;;;3.20;80.20;;;2.55;75.27;99717.97;5076459;28;20528;-78
2023/01/24 09:03:41;;;;;;;8.70;5.03;;;3.20;80.10;;;2.57;75.40;99699.16;5085909;28;20489;-73
2023/01/24 09:06:08;;;;;;;12.10;5.27;;;3.20;80.40;;;2.61;74.86;99727.31;5078421;28;20517;-73
2023/01/24 09:08:35;;;;;;;7.97;5.80;;;3.20;80.10;;;2.77;75.32;99720.75;5081896;28;20440;-76
2023/01/24 09:11:03;;;;;;;6.97;5.67;;;3.20;80.10;;;2.80;74.23;99716.00;5098208;28;20456;-78
2023/01/24 09:13:31;;;;;;;7.47;5.13;;;3.40;79.80;;;2.72;75.15;99726.44;5080193;28;20544;-74
2023/01/24 09:16:00;;;;;;;6.80;5.30;;;3.30;79.90;;;2.65;75.01;99719.91;5079307;28;20810;-78
2023/01/24 09:18:27;;;;;;;7.50;5.70;;;3.30;80.00;;;2.67;75.48;99728.66;5082303;28;20563;-74
2023/01/24 09:20:56;;;;;;;6.30;5.33;;;3.30;80.00;;;2.66;74.92;99716.28;5076206;28;20951;-75
2023/01/24 09:23:23;;;;;;;7.40;5.73;;;3.30;79.90;;;2.75;74.86;99728.88;5080192;28;20459;-76
2023/01/24 09:25:52;;;;;;;7.10;6.10;;;3.30;79.90;;;2.72;74.84;99722.91;5076665;28;20447;-76
2023/01/24 09:28:20;;;;;;;7.20;5.73;;;3.30;79.80;;;2.75;74.71;99720.03;5079801;28;20461;-77
2023/01/24 09:30:48;;;;;;;6.20;5.30;;;3.40;79.90;;;2.93;74.73;99726.56;5079442;28;20490;-74
2023/01/24 09:33:17;;;;;;;6.10;5.17;;;3.40;79.90;;;2.93;73.72;99723.00;5085583;28;20459;-76
2023/01/24 09:35:52;;;;;;;5.40;4.60;;;3.50;79.30;;;2.89;74.58;99724.25;5079197;28;20542;-74
2023/01/24 09:38:22;;;;;;;6.70;6.03;;;3.50;79.40;;;3.00;73.82;99720.69;5075502;28;20779;-76
2023/01/24 09:40:57;;;;;;;5.43;4.77;;;3.50;79.30;;;2.95;74.39;99724.59;5080378;28;20470;-75
2023/01/24 09:43:45;;;;;;;8.93;6.00;;;3.50;79.40;;;3.12;73.33;99725.03;5088283;28;20458;-76
2023/01/24 09:46:23;;;;;;;6.50;5.00;;;3.60;79.30;;;3.00;73.93;99721.56;5082755;28;20523;-76
2023/01/24 09:49:01;;;;;;;5.63;4.80;;;3.60;79.10;;;3.24;73.53;99723.19;5080443;28;20509;-76
2023/01/24 09:51:32;;;;;;;6.90;5.53;;;3.60;79.20;;;3.21;73.11;99723.44;5084113;28;20552;-74
2023/01/24 09:54:03;;;;;;;7.20;5.80;;;3.70;78.90;;;3.15;73.37;99726.63;5084624;28;20455;-78
2023/01/24 09:56:36;;;;;;;6.53;5.40;;;3.70;78.80;;;3.08;73.66;99732.44;5090921;28;20463;-75
2023/01/24 09:59:17;;;;;;;5.90;5.00;;;3.60;78.80;;;3.06;73.53;99720.22;5094103;28;20490;-75
2023/01/24 10:01:45;;;;;;;6.80;6.10;;;3.60;78.90;;;3.09;73.42;99726.13;5085241;28;20477;-76
2023/01/24 10:04:20;;;;;;;6.07;5.47;;;3.60;79.00;;;3.30;72.81;99730.72;5089280;28;20462;-76
2023/01/24 10:07:21;;;;;;;7.77;6.97;;;3.70;79.00;;;3.23;73.02;99717.00;5085266;28;20467;-77
2023/01/24 10:10:12;;;;;;;8.37;5.80;;;3.80;79.00;;;3.25;72.98;99731.09;5084530;28;20565;-75
2023/01/24 10:12:52;;;;;;;8.47;6.17;;;3.80;78.70;;;3.34;73.26;99718.78;5101189;27;20451;-77
2023/01/24 10:15:42;;;;;;;7.63;5.37;;;3.80;78.80;;;3.17;73.25;99720.16;5083179;28;20626;-75
2023/01/24 10:18:39;;;;;;;7.93;7.13;;;3.80;78.50;;;3.19;73.26;99717.38;5093878;28;20492;-78
2023/01/24 10:21:58;;;;;;;8.70;6.20;;;3.70;78.70;;;3.32;72.53;99726.09;5079050;28;20193;-75
2023/01/24 10:24:32;;;;;;;6.30;5.70;;;3.80;78.70;;;3.36;73.08;99722.19;5082583;28;21045;-76
2023/01/24 10:27:02;;;;;;;6.90;5.67;;;3.90;78.60;;;3.28;73.51;99730.00;5086007;28;20792;-77
2023/01/24 10:29:32;;;;;;;9.53;7.10;;;3.80;78.60;;;3.17;72.88;99720.16;5082053;28;20524;-85
2023/01/24 10:32:04;;;;;;;6.80;5.43;;;3.80;78.70;;;3.13;73.88;99720.56;5091438;28;20504;-76
2023/01/24 10:34:36;;;;;;;7.67;6.87;;;3.70;78.60;;;3.47;72.46;99718.59;5085546;28;20471;-75
2023/01/24 10:37:11;;;;;;;7.60;6.07;;;3.90;78.80;;;3.40;72.82;99717.44;5086438;28;20451;-74
2023/01/24 10:39:39;;;;;;;6.63;5.70;;;3.90;78.50;;;3.30;72.49;99721.84;5087550;28;20987;-73
2023/01/24 10:42:20;;;;;;;6.90;6.20;;;3.90;78.30;;;3.28;73.27;99708.63;5086274;28;20451;-75
2023/01/24 10:44:48;;;;;;;6.90;6.20;;;3.90;78.50;;;3.30;73.39;99712.00;5085268;28;20448;-76
2023/01/24 10:47:41;;;;;;;8.10;6.43;;;3.90;78.70;;;3.45;73.11;99709.88;5084654;28;20926;-72
2023/01/24 10:50:12;;;;;;;6.97;5.70;;;3.90;78.70;;;3.45;73.08;99706.38;5086967;28;20644;-74
2023/01/24 10:52:39;;;;;;;6.47;5.70;;;4.00;78.40;;;3.60;72.17;99698.88;5090716;28;20723;-72
2023/01/24 10:55:27;;;;;;;6.77;6.00;;;4.00;78.40;;;3.58;71.99;99709.72;5102131;28;20918;-72
2023/01/24 10:57:55;;;;;;;8.23;6.30;;;4.10;78.10;;;3.46;72.07;99711.56;5111173;28;20465;-72
2023/01/24 11:00:33;;;;;;;7.10;6.07;;;4.00;78.00;;;3.51;72.22;99712.06;5097082;28;20479;-73
2023/01/24 11:03:03;;;;;;;7.47;6.27;;;4.10;78.20;;;3.61;71.76;99705.91;5114757;27;20474;-75
2023/01/24 11:05:40;;;;;;;7.37;6.30;;;4.10;78.20;;;3.61;71.86;99701.44;5104784;28;20936;-73
2023/01/24 11:08:17;;;;;;;8.30;6.13;;;4.10;77.90;;;3.67;72.06;99697.41;5088639;28;20456;-74
2023/01/24 11:10:44;;;;;;;7.13;6.37;;;4.10;78.20;;;3.62;71.51;99700.44;5073212;28;20460;-73
2023/01/24 11:13:34;;;;;;;7.70;6.30;;;4.20;78.10;;;3.60;72.16;99690.84;5084448;28;20484;-74
2023/01/24 11:16:06;;;;;;;8.97;7.00;;;4.10;78.00;;;3.63;72.26;99694.13;5083292;28;20454;-73
2023/01/24 11:18:35;;;;;;;7.57;5.90;;;4.10;78.10;;;3.70;71.96;99691.78;5087859;28;21173;-75